Aérodrome :
LOGIN :

S'inscrire | Disclaimer

   EN    FR    IT 

 










Légende :    VFR   VFR Marginal   IFR   IFR Intensif   IFR Très Intensif
Visi : 
Plafond : 
>= 8 km
>= 3000ft
5 à 8 km
1000 à 3000 ft
1500m à 5 km
500 à 1000 ft
800 à 1500m
200 à 500 ft
< 800m
< 200 ft
Symboles :   Orages  Brouillard  Fortes neiges  Fortes précipitations  Vent > 20 kt
SIGMETs :   Divers  Orages  Givrage  Turbulence  Onde Orograph.  Cendres Volcan.






- Altitude de l'aérodrome : 1674 ft
- Code IATA : BRN


LSZB - Bern Belp

DERNIER METAR :
  • 280620Z 02004KT 320V100 9999 FEW024 BKN042 14/09 Q1020 NOSIG

METARs EXPIRÉS :
  • 280550Z VRB03KT 9999 SCT038 BKN045 14/09 Q1020 NOSIG
  • 280520Z 00000KT 9999 FEW037 BKN044 14/09 Q1020 NOSIG
  • 280450Z AUTO VRB02KT 9999 BKN038 14/09 Q1020
  • 280420Z AUTO 05004KT 350V090 9999 BKN035 BKN039 14/09 Q1020
  • 280350Z AUTO VRB01KT 9999 BKN032 BKN036 14/09 Q1020

TAF TAF LSZB
Valide du 28 à 06h jusqu'au 28 à 15h UTC


280525Z 2806/2815 VRB02KT 9999 BKN035
BECMG 2808/2810 31010KT SCT035
ATIS : +41 22 417 40 76



MET'MAP, la Météo Aéronautique d'un coup d'oeil ! - Copyright ORBIFLY Décembre 2007 - Disclaimer

ORBIFLY MET'MAP TEAM :

Programmation & Développement : Alexandra Zaïnal
Sur une idée originale de : Baudouin d'Aumeries
Soutien technique & logistique : Manuel Goepfert
Assistance : Marc-Olivier Méhu

Contact : metmap@orbifly.com




SOURCES & CREDITS :

   NOAA